createdAt,value
2018-11-25T00:00:23.166Z,22.60
2018-11-25T00:02:49.615Z,22.60
2018-11-25T00:05:16.085Z,22.60
2018-11-25T00:07:42.562Z,22.50
2018-11-25T00:10:09.001Z,22.50
2018-11-25T00:12:35.453Z,22.50
2018-11-25T00:15:01.918Z,22.40
2018-11-25T00:17:28.359Z,22.40
2018-11-25T00:19:54.803Z,22.40
2018-11-25T00:22:21.281Z,22.30
2018-11-25T00:24:47.757Z,22.30
2018-11-25T00:27:14.217Z,22.30
2018-11-25T00:29:40.661Z,22.30
2018-11-25T00:32:07.103Z,22.30
2018-11-25T00:34:33.563Z,22.20
2018-11-25T00:37:00.045Z,22.20
2018-11-25T00:39:26.498Z,22.20
2018-11-25T00:41:52.980Z,22.20
2018-11-25T00:44:19.404Z,22.10
2018-11-25T00:46:45.864Z,22.10
2018-11-25T00:49:12.325Z,22.10
2018-11-25T00:51:38.797Z,22.10
2018-11-25T00:54:05.197Z,22.10
2018-11-25T00:56:31.648Z,22.10
2018-11-25T00:58:58.117Z,22.00
2018-11-25T01:01:24.612Z,22.10
2018-11-25T01:03:51.054Z,22.00
2018-11-25T01:06:17.503Z,22.00
2018-11-25T01:08:43.946Z,22.00
2018-11-25T01:11:10.372Z,22.00
2018-11-25T01:13:36.812Z,22.00
2018-11-25T01:16:03.278Z,22.00
2018-11-25T01:18:29.712Z,22.00
2018-11-25T01:20:56.211Z,22.00
2018-11-25T01:23:22.654Z,22.00
2018-11-25T01:25:49.112Z,22.00
2018-11-25T01:28:15.531Z,21.90
2018-11-25T01:30:41.977Z,21.90
2018-11-25T01:33:08.453Z,22.00
2018-11-25T01:35:35.316Z,22.00
2018-11-25T01:38:01.808Z,22.00
2018-11-25T01:40:28.273Z,21.90
2018-11-25T01:42:54.749Z,21.90
2018-11-25T01:45:21.177Z,21.90
2018-11-25T01:47:47.673Z,21.90
2018-11-25T01:50:14.111Z,21.90
2018-11-25T01:52:40.547Z,21.90
2018-11-25T01:55:06.957Z,21.80
2018-11-25T01:57:33.412Z,21.90
2018-11-25T01:59:59.854Z,21.90
2018-11-25T02:02:26.294Z,21.90
2018-11-25T02:04:52.724Z,21.80
2018-11-25T02:07:19.166Z,21.80
2018-11-25T02:09:45.598Z,21.80
2018-11-25T02:12:12.058Z,21.80
2018-11-25T02:14:38.507Z,21.80
2018-11-25T02:17:05.071Z,21.80
2018-11-25T02:19:31.509Z,21.80
2018-11-25T02:21:57.917Z,21.80
2018-11-25T02:24:24.365Z,21.80
2018-11-25T02:26:50.831Z,21.80
2018-11-25T02:29:17.265Z,21.80
2018-11-25T02:31:43.717Z,21.70
2018-11-25T02:34:10.150Z,21.80
2018-11-25T02:36:36.595Z,21.70
2018-11-25T02:39:03.095Z,21.70
2018-11-25T02:41:29.541Z,21.70
2018-11-25T02:43:55.990Z,21.80
2018-11-25T02:46:22.434Z,21.70
2018-11-25T02:48:48.887Z,21.70
2018-11-25T02:51:15.342Z,21.70
2018-11-25T02:53:41.753Z,21.70
2018-11-25T02:56:08.170Z,21.70
2018-11-25T02:58:34.633Z,21.70
2018-11-25T03:01:05.620Z,21.70
2018-11-25T03:03:32.035Z,21.70
2018-11-25T03:05:58.449Z,21.70
2018-11-25T03:08:24.859Z,21.70
2018-11-25T03:10:51.301Z,21.70
2018-11-25T03:13:17.747Z,21.70
2018-11-25T03:15:44.159Z,21.60
2018-11-25T03:18:10.581Z,21.70
2018-11-25T03:20:36.988Z,21.60
2018-11-25T03:23:03.435Z,21.60
2018-11-25T03:25:30.329Z,21.60
2018-11-25T03:27:56.765Z,21.60
2018-11-25T03:30:23.207Z,21.60
2018-11-25T03:32:49.638Z,21.60
2018-11-25T03:35:16.097Z,21.60
2018-11-25T03:37:42.522Z,21.60
2018-11-25T03:40:08.957Z,21.60
2018-11-25T03:42:35.419Z,21.60
2018-11-25T03:45:01.907Z,21.60
2018-11-25T03:47:28.357Z,21.60
2018-11-25T03:49:54.865Z,21.60
2018-11-25T03:52:21.339Z,21.50
2018-11-25T03:54:47.747Z,21.60
2018-11-25T03:57:14.230Z,21.50
2018-11-25T03:59:40.629Z,21.60
2018-11-25T04:02:07.076Z,21.50
2018-11-25T04:04:33.532Z,21.50
2018-11-25T04:06:59.952Z,21.50
2018-11-25T04:09:26.399Z,21.50
2018-11-25T04:11:52.872Z,21.50
2018-11-25T04:14:19.318Z,21.50
2018-11-25T04:16:45.810Z,21.50
2018-11-25T04:19:12.305Z,21.50
2018-11-25T04:21:38.746Z,21.60
2018-11-25T04:24:05.205Z,21.60
2018-11-25T04:26:31.601Z,21.70
2018-11-25T04:28:58.058Z,21.70
2018-11-25T04:31:24.514Z,21.60
2018-11-25T04:33:51.015Z,21.60
2018-11-25T04:36:17.456Z,21.60
2018-11-25T04:38:43.940Z,21.60
2018-11-25T04:41:10.373Z,21.60
2018-11-25T04:43:36.803Z,21.50
2018-11-25T04:46:03.259Z,21.50
2018-11-25T04:48:29.672Z,21.50
2018-11-25T04:50:56.103Z,21.50
2018-11-25T04:53:22.577Z,21.50
2018-11-25T04:55:49.009Z,21.50
2018-11-25T04:58:15.439Z,21.50
2018-11-25T05:00:41.888Z,21.50
2018-11-25T05:03:08.357Z,21.50
2018-11-25T05:05:35.560Z,21.50
2018-11-25T05:08:02.008Z,21.50
2018-11-25T05:10:28.511Z,21.60
2018-11-25T05:12:54.966Z,21.60
2018-11-25T05:15:21.534Z,21.50
2018-11-25T05:17:47.993Z,21.60
2018-11-25T05:20:14.448Z,21.50
2018-11-25T05:22:40.924Z,21.60
2018-11-25T05:25:07.366Z,21.60
2018-11-25T05:27:33.814Z,21.60
2018-11-25T05:30:00.278Z,21.60
2018-11-25T05:32:26.711Z,21.60
2018-11-25T05:34:53.147Z,21.60
2018-11-25T05:37:19.590Z,21.60
2018-11-25T05:39:46.026Z,21.60
2018-11-25T05:42:12.464Z,21.70
2018-11-25T05:44:38.930Z,21.60
2018-11-25T05:47:05.345Z,21.60
2018-11-25T05:49:36.319Z,21.70
2018-11-25T05:51:58.249Z,21.70
2018-11-25T05:54:24.685Z,21.70
2018-11-25T05:56:51.082Z,21.70
2018-11-25T05:59:17.539Z,21.70
2018-11-25T06:01:44.063Z,21.70
2018-11-25T06:04:10.578Z,21.70
2018-11-25T06:06:36.982Z,21.60
2018-11-25T06:09:03.822Z,21.60
2018-11-25T06:11:30.266Z,21.70
2018-11-25T06:13:56.729Z,21.70
2018-11-25T06:16:23.183Z,21.60
2018-11-25T06:18:49.619Z,21.60
2018-11-25T06:21:16.052Z,21.60
2018-11-25T06:23:42.469Z,21.60
2018-11-25T06:26:08.941Z,21.50
2018-11-25T06:28:35.385Z,21.50
2018-11-25T06:31:01.815Z,21.50
2018-11-25T06:33:28.244Z,21.60
2018-11-25T06:35:54.713Z,21.60
2018-11-25T06:38:21.133Z,21.60
2018-11-25T06:40:47.569Z,21.60
2018-11-25T06:43:16.993Z,21.70
2018-11-25T06:45:43.433Z,21.80
2018-11-25T06:48:09.879Z,21.90
2018-11-25T06:50:36.318Z,21.90
2018-11-25T06:53:02.779Z,21.90
2018-11-25T06:55:29.249Z,22.00
2018-11-25T06:57:55.679Z,22.00
2018-11-25T07:00:22.107Z,22.10
2018-11-25T07:02:48.531Z,22.10
2018-11-25T07:05:14.973Z,22.10
2018-11-25T07:07:41.390Z,22.10
2018-11-25T07:10:07.823Z,22.10
2018-11-25T07:12:34.264Z,22.10
2018-11-25T07:15:00.737Z,22.00
2018-11-25T07:17:27.211Z,22.10
2018-11-25T07:19:53.693Z,22.10
2018-11-25T07:22:20.131Z,22.10
2018-11-25T07:24:46.559Z,22.10
2018-11-25T07:27:12.985Z,22.20
2018-11-25T07:29:39.493Z,22.20
2018-11-25T07:32:05.953Z,22.30
2018-11-25T07:34:32.413Z,22.30
2018-11-25T07:36:58.847Z,22.30
2018-11-25T07:39:25.302Z,22.30
2018-11-25T07:41:51.759Z,22.30
2018-11-25T07:44:18.297Z,22.40
2018-11-25T07:46:44.750Z,22.40
2018-11-25T07:49:11.211Z,22.40
2018-11-25T07:51:37.722Z,22.50
2018-11-25T07:54:04.181Z,22.40
2018-11-25T07:56:30.616Z,22.50
2018-11-25T07:58:57.075Z,22.50
2018-11-25T08:01:23.547Z,22.50
2018-11-25T08:03:50.364Z,22.50
2018-11-25T08:06:16.831Z,22.50
2018-11-25T08:08:43.269Z,22.60
2018-11-25T08:11:09.710Z,22.60
2018-11-25T08:13:36.172Z,22.60
2018-11-25T08:16:02.670Z,22.60
2018-11-25T08:18:29.146Z,22.60
2018-11-25T08:20:55.626Z,22.60
2018-11-25T08:23:22.090Z,22.60
2018-11-25T08:25:48.528Z,22.60
2018-11-25T08:28:15.262Z,22.60
2018-11-25T08:30:41.825Z,22.50
2018-11-25T08:33:08.260Z,22.50
2018-11-25T08:35:34.704Z,22.50
2018-11-25T08:38:01.180Z,22.50
2018-11-25T08:40:27.647Z,22.50
2018-11-25T08:42:54.123Z,22.60
2018-11-25T08:45:20.597Z,22.50
2018-11-25T08:47:47.056Z,22.60
2018-11-25T08:50:13.514Z,22.60
2018-11-25T08:52:39.970Z,22.70
2018-11-25T08:55:06.420Z,22.70
2018-11-25T08:57:32.853Z,22.70
2018-11-25T08:59:59.295Z,22.70
2018-11-25T09:02:25.733Z,22.80
2018-11-25T09:04:52.220Z,22.80
2018-11-25T09:07:18.662Z,22.90
2018-11-25T09:09:45.172Z,22.80
2018-11-25T09:12:12.299Z,22.90
2018-11-25T09:14:39.186Z,22.90
2018-11-25T09:17:05.600Z,22.90
2018-11-25T09:19:32.056Z,22.90
2018-11-25T09:21:59.845Z,22.90
2018-11-25T09:24:24.939Z,23.00
2018-11-25T09:26:51.362Z,23.00
2018-11-25T09:29:17.808Z,23.00
2018-11-25T09:31:44.227Z,23.00
2018-11-25T09:34:10.704Z,23.00
2018-11-25T09:36:37.104Z,22.90
2018-11-25T09:39:03.610Z,22.90
2018-11-25T09:41:30.056Z,22.90
2018-11-25T09:43:56.490Z,22.90
2018-11-25T09:46:22.920Z,22.80
2018-11-25T09:48:49.388Z,22.80
2018-11-25T09:51:15.834Z,22.80
2018-11-25T09:53:42.263Z,22.70
2018-11-25T09:56:08.658Z,22.70
2018-11-25T09:58:35.091Z,22.80
2018-11-25T10:01:01.548Z,22.80
2018-11-25T10:03:28.052Z,22.80
2018-11-25T10:05:54.488Z,22.80
2018-11-25T10:08:21.026Z,22.80
2018-11-25T10:10:52.632Z,22.80
2018-11-25T10:13:13.926Z,22.80
2018-11-25T10:15:40.357Z,22.80
2018-11-25T10:18:06.795Z,22.90
2018-11-25T10:20:33.254Z,22.90
2018-11-25T10:22:59.752Z,22.80
2018-11-25T10:25:26.220Z,22.90
2018-11-25T10:27:52.731Z,22.90
2018-11-25T10:30:19.304Z,22.90
2018-11-25T10:32:45.746Z,22.90
2018-11-25T10:35:12.216Z,22.80
2018-11-25T10:37:38.663Z,22.80
2018-11-25T10:40:05.127Z,22.80
2018-11-25T10:42:31.644Z,22.70
2018-11-25T10:44:58.065Z,22.70
2018-11-25T10:47:24.534Z,22.70
2018-11-25T10:49:50.999Z,22.70
2018-11-25T10:52:17.435Z,22.70
2018-11-25T10:54:43.920Z,22.80
2018-11-25T10:57:10.392Z,22.80
2018-11-25T10:59:36.842Z,22.80
2018-11-25T11:02:09.098Z,22.90
2018-11-25T11:04:41.474Z,22.80
2018-11-25T11:07:13.586Z,22.90
2018-11-25T11:09:40.028Z,22.90
2018-11-25T11:12:06.439Z,23.00
2018-11-25T11:14:32.885Z,23.00
2018-11-25T11:16:59.300Z,23.00
2018-11-25T11:19:25.777Z,23.00
2018-11-25T11:21:52.211Z,23.00
2018-11-25T11:24:19.407Z,23.00
2018-11-25T11:26:45.857Z,23.00
2018-11-25T11:29:12.303Z,23.10
2018-11-25T11:31:38.794Z,23.10
2018-11-25T11:34:06.460Z,23.10
2018-11-25T11:36:32.933Z,23.10
2018-11-25T11:38:59.369Z,23.00
2018-11-25T11:41:25.787Z,23.00
2018-11-25T11:43:52.353Z,23.00
2018-11-25T11:46:18.835Z,22.90
2018-11-25T11:48:45.307Z,22.90
2018-11-25T11:51:11.815Z,22.90
2018-11-25T11:53:38.359Z,22.90
2018-11-25T11:56:04.848Z,22.90
2018-11-25T11:58:31.415Z,22.90
2018-11-25T12:00:58.669Z,22.90
2018-11-25T12:03:26.482Z,22.90
2018-11-25T12:05:51.613Z,23.00
2018-11-25T12:08:18.067Z,23.00
2018-11-25T12:10:44.518Z,23.00
2018-11-25T12:13:11.215Z,23.00
2018-11-25T12:15:37.720Z,23.00
2018-11-25T12:18:04.140Z,23.00
2018-11-25T12:20:30.615Z,23.00
2018-11-25T12:22:57.056Z,23.00
2018-11-25T12:25:24.008Z,23.00
2018-11-25T12:27:50.541Z,23.00
2018-11-25T12:30:17.012Z,23.10
2018-11-25T12:32:43.484Z,23.10
2018-11-25T12:35:10.435Z,23.00
2018-11-25T12:37:36.845Z,23.00
2018-11-25T12:40:03.307Z,23.00
2018-11-25T12:42:29.803Z,22.90
2018-11-25T12:44:57.007Z,22.90
2018-11-25T12:47:24.302Z,22.90
2018-11-25T12:49:49.942Z,23.00
2018-11-25T12:52:16.396Z,23.00
2018-11-25T12:54:42.850Z,23.00
2018-11-25T12:57:09.266Z,23.00
2018-11-25T12:59:35.736Z,23.00
2018-11-25T13:02:02.183Z,23.10
2018-11-25T13:04:28.637Z,23.10
2018-11-25T13:06:55.112Z,23.10
2018-11-25T13:09:21.595Z,23.10
2018-11-25T13:11:52.273Z,23.10
2018-11-25T13:14:14.630Z,23.10
2018-11-25T13:16:41.571Z,23.20
2018-11-25T13:19:08.412Z,23.20
2018-11-25T13:21:35.353Z,23.20
2018-11-25T13:24:01.888Z,23.20
2018-11-25T13:26:28.662Z,23.20
2018-11-25T13:28:55.717Z,23.20
2018-11-25T13:31:22.659Z,23.20
2018-11-25T13:33:49.515Z,23.20
2018-11-25T13:36:16.030Z,23.20
2018-11-25T13:38:42.881Z,23.20
2018-11-25T13:41:09.718Z,23.20
2018-11-25T13:43:36.662Z,23.10
2018-11-25T13:46:03.536Z,23.10
2018-11-25T13:48:30.375Z,23.10
2018-11-25T13:50:56.831Z,23.10
2018-11-25T13:53:23.649Z,23.00
2018-11-25T13:55:50.572Z,23.00
2018-11-25T13:58:17.414Z,23.00
2018-11-25T14:00:43.942Z,23.00
2018-11-25T14:03:10.416Z,23.00
2018-11-25T14:05:36.863Z,22.90
2018-11-25T14:08:03.341Z,22.90
2018-11-25T14:10:29.796Z,23.00
2018-11-25T14:12:56.232Z,22.90
2018-11-25T14:15:22.697Z,23.00
2018-11-25T14:17:49.136Z,23.00
2018-11-25T14:20:15.578Z,23.00
2018-11-25T14:22:42.044Z,23.00
2018-11-25T14:25:08.489Z,23.00
2018-11-25T14:27:34.948Z,23.00
2018-11-25T14:30:01.410Z,23.00
2018-11-25T14:32:27.886Z,23.00
2018-11-25T14:34:54.337Z,23.00
2018-11-25T14:37:20.828Z,23.00
2018-11-25T14:39:47.248Z,23.10
2018-11-25T14:42:13.675Z,23.10
2018-11-25T14:44:40.197Z,23.10
2018-11-25T14:47:06.640Z,23.20
2018-11-25T14:49:33.220Z,23.20
2018-11-25T14:51:59.668Z,23.20
2018-11-25T14:54:26.146Z,23.20
2018-11-25T14:56:52.577Z,23.30
2018-11-25T14:59:19.024Z,23.30
2018-11-25T15:01:45.454Z,23.20
2018-11-25T15:04:11.925Z,23.30
2018-11-25T15:06:38.424Z,23.30
2018-11-25T15:09:04.892Z,23.30
2018-11-25T15:11:31.341Z,23.30
2018-11-25T15:13:57.827Z,23.30
2018-11-25T15:16:24.253Z,23.20
2018-11-25T15:18:50.731Z,23.20
2018-11-25T15:21:17.177Z,23.20
2018-11-25T15:23:43.626Z,23.20
2018-11-25T15:26:10.065Z,23.20
2018-11-25T15:28:36.512Z,23.20
2018-11-25T15:31:02.970Z,23.20
2018-11-25T15:33:29.419Z,23.20
2018-11-25T15:35:55.893Z,23.20
2018-11-25T15:38:22.344Z,23.20
2018-11-25T15:40:48.821Z,23.20
2018-11-25T15:43:15.321Z,23.30
2018-11-25T15:45:41.832Z,23.30
2018-11-25T15:48:08.351Z,23.30
2018-11-25T15:50:34.819Z,23.30
2018-11-25T15:53:01.261Z,23.30
2018-11-25T15:55:27.693Z,23.40
2018-11-25T15:57:54.139Z,23.30
2018-11-25T16:00:20.617Z,23.30
2018-11-25T16:02:47.096Z,23.30
2018-11-25T16:05:13.542Z,23.30
2018-11-25T16:07:39.994Z,23.30
2018-11-25T16:10:06.513Z,23.20
2018-11-25T16:12:33.038Z,23.20
2018-11-25T16:14:59.531Z,23.20
2018-11-25T16:17:26.020Z,23.10
2018-11-25T16:19:52.781Z,23.20
2018-11-25T16:22:19.279Z,23.20
2018-11-25T16:24:45.753Z,23.20
2018-11-25T16:27:12.198Z,23.20
2018-11-25T16:29:38.691Z,23.20
2018-11-25T16:32:05.159Z,23.20
2018-11-25T16:34:31.635Z,23.20
2018-11-25T16:36:58.105Z,23.20
2018-11-25T16:39:24.610Z,23.20
2018-11-25T16:41:51.074Z,23.20
2018-11-25T16:44:17.556Z,23.20
2018-11-25T16:46:44.024Z,23.20
2018-11-25T16:49:10.520Z,23.20
2018-11-25T16:51:36.967Z,23.20
2018-11-25T16:54:03.445Z,23.20
2018-11-25T16:56:29.887Z,23.20
2018-11-25T16:58:56.369Z,23.10
2018-11-25T17:01:22.788Z,23.10
2018-11-25T17:03:49.243Z,23.10
2018-11-25T17:06:15.681Z,23.10
2018-11-25T17:08:42.183Z,23.10
2018-11-25T17:11:08.763Z,23.20
2018-11-25T17:13:35.269Z,23.20
2018-11-25T17:16:01.945Z,23.20
2018-11-25T17:18:28.412Z,23.20
2018-11-25T17:20:54.898Z,23.20
2018-11-25T17:23:21.360Z,23.20
2018-11-25T17:25:47.904Z,23.20
2018-11-25T17:28:14.367Z,23.30
2018-11-25T17:30:40.817Z,23.30
2018-11-25T17:33:07.249Z,23.30
2018-11-25T17:35:33.741Z,23.30
2018-11-25T17:38:00.213Z,23.30
2018-11-25T17:40:26.748Z,23.30
2018-11-25T17:42:53.205Z,23.40
2018-11-25T17:45:19.780Z,23.40
2018-11-25T17:47:46.210Z,23.40
2018-11-25T17:50:12.645Z,23.40
2018-11-25T17:52:39.100Z,23.40
2018-11-25T17:55:05.556Z,23.40
2018-11-25T17:57:32.004Z,23.30
2018-11-25T17:59:58.499Z,23.30
2018-11-25T18:02:26.649Z,23.30
2018-11-25T18:04:53.142Z,23.30
2018-11-25T18:07:19.597Z,23.30
2018-11-25T18:09:46.061Z,23.20
2018-11-25T18:12:12.538Z,23.20
2018-11-25T18:14:39.036Z,23.20
2018-11-25T18:17:05.534Z,23.10
2018-11-25T18:19:32.067Z,23.10
2018-11-25T18:21:58.552Z,23.10
2018-11-25T18:24:25.112Z,23.10
2018-11-25T18:26:51.629Z,23.10
2018-11-25T18:29:18.127Z,23.10
2018-11-25T18:31:44.617Z,23.10
2018-11-25T18:34:11.933Z,23.10
2018-11-25T18:36:38.376Z,23.10
2018-11-25T18:39:04.940Z,23.10
2018-11-25T18:41:31.398Z,23.10
2018-11-25T18:43:57.861Z,23.10
2018-11-25T18:46:25.277Z,23.10
2018-11-25T18:48:51.801Z,23.10
2018-11-25T18:51:18.230Z,23.10
2018-11-25T18:53:44.676Z,23.10
2018-11-25T18:56:11.158Z,23.20
2018-11-25T18:58:37.624Z,23.20
2018-11-25T19:01:04.320Z,23.10
2018-11-25T19:03:30.789Z,23.20
2018-11-25T19:05:57.287Z,23.20
2018-11-25T19:08:23.744Z,23.20
2018-11-25T19:10:50.327Z,23.20
2018-11-25T19:13:16.844Z,23.20
2018-11-25T19:15:43.285Z,23.20
2018-11-25T19:18:09.765Z,23.30
2018-11-25T19:20:36.225Z,23.30
2018-11-25T19:23:02.683Z,23.30
2018-11-25T19:25:29.275Z,23.30
2018-11-25T19:27:55.717Z,23.30
2018-11-25T19:30:26.753Z,23.30
2018-11-25T19:32:48.699Z,23.30
2018-11-25T19:35:15.146Z,23.20
2018-11-25T19:37:41.600Z,23.20
2018-11-25T19:40:08.075Z,23.20
2018-11-25T19:42:34.556Z,23.20
2018-11-25T19:45:01.018Z,23.20
2018-11-25T19:47:27.498Z,23.20
2018-11-25T19:49:53.952Z,23.20
2018-11-25T19:52:20.387Z,23.20
2018-11-25T19:54:46.885Z,23.30
2018-11-25T19:57:13.362Z,23.30
2018-11-25T19:59:39.821Z,23.30
2018-11-25T20:02:06.289Z,23.30
2018-11-25T20:04:32.788Z,23.30
2018-11-25T20:06:59.245Z,23.30
2018-11-25T20:09:29.527Z,23.30
2018-11-25T20:11:56.007Z,23.20
2018-11-25T20:14:22.482Z,23.20
2018-11-25T20:16:54.538Z,23.20
2018-11-25T20:19:21.005Z,23.20
2018-11-25T20:21:53.207Z,23.20
2018-11-25T20:24:19.668Z,23.20
2018-11-25T20:27:01.315Z,23.10
2018-11-25T20:29:45.321Z,23.10
2018-11-25T20:35:02.121Z,23.10
2018-11-25T20:37:28.598Z,23.10
2018-11-25T20:39:55.077Z,23.10
2018-11-25T20:42:21.557Z,23.10
2018-11-25T20:44:47.995Z,23.00
2018-11-25T20:47:14.529Z,23.00
2018-11-25T20:49:40.993Z,23.00
2018-11-25T20:52:13.144Z,23.00
2018-11-25T20:54:39.591Z,23.00
2018-11-25T20:57:06.108Z,23.00
2018-11-25T20:59:32.633Z,23.00
2018-11-25T21:01:59.093Z,23.00
2018-11-25T21:04:25.541Z,23.00
2018-11-25T21:06:51.994Z,23.00
2018-11-25T21:09:18.469Z,23.00
2018-11-25T21:11:44.898Z,23.00
2018-11-25T21:14:11.317Z,23.00
2018-11-25T21:16:37.745Z,23.00
2018-11-25T21:19:04.181Z,22.80
2018-11-25T21:21:30.633Z,23.00
2018-11-25T21:23:57.082Z,23.00
2018-11-25T21:26:23.560Z,23.00
2018-11-25T21:28:49.999Z,23.00
2018-11-25T21:31:16.893Z,22.90
2018-11-25T21:33:43.419Z,22.90
2018-11-25T21:36:09.878Z,22.90
2018-11-25T21:38:36.392Z,23.00
2018-11-25T21:41:02.905Z,23.00
2018-11-25T21:43:29.413Z,22.90
2018-11-25T21:45:55.867Z,22.90
2018-11-25T21:48:22.337Z,22.90
2018-11-25T21:50:48.815Z,22.90
2018-11-25T21:53:15.232Z,22.90
2018-11-25T21:55:41.645Z,22.80
2018-11-25T21:58:08.088Z,22.80
2018-11-25T22:00:34.503Z,22.80
2018-11-25T22:03:00.939Z,22.80
2018-11-25T22:05:27.402Z,22.80
2018-11-25T22:07:53.836Z,22.80
2018-11-25T22:10:20.748Z,22.70
2018-11-25T22:12:47.510Z,22.70
2018-11-25T22:15:13.982Z,22.70
2018-11-25T22:17:40.408Z,22.70
2018-11-25T22:20:06.846Z,22.70
2018-11-25T22:22:33.280Z,22.70
2018-11-25T22:24:59.714Z,22.70
2018-11-25T22:27:26.172Z,22.70
2018-11-25T22:29:52.625Z,22.70
2018-11-25T22:32:19.069Z,22.80
2018-11-25T22:34:45.542Z,22.80
2018-11-25T22:37:11.964Z,22.80
2018-11-25T22:39:38.372Z,22.90
2018-11-25T22:42:04.843Z,22.90
2018-11-25T22:44:31.288Z,22.90
2018-11-25T22:46:57.761Z,22.90
2018-11-25T22:49:24.238Z,22.80
2018-11-25T22:51:50.674Z,22.80
2018-11-25T22:54:17.129Z,22.80
2018-11-25T22:56:43.608Z,22.70
2018-11-25T22:59:10.050Z,22.70
2018-11-25T23:01:36.510Z,22.70
2018-11-25T23:04:02.942Z,22.70
2018-11-25T23:06:29.381Z,22.70
2018-11-25T23:08:55.804Z,22.70
2018-11-25T23:11:22.250Z,22.70
2018-11-25T23:13:48.710Z,22.70
2018-11-25T23:16:17.880Z,22.60
2018-11-25T23:18:44.330Z,22.60
2018-11-25T23:21:10.806Z,22.60
2018-11-25T23:23:37.242Z,22.60
2018-11-25T23:26:03.665Z,22.60
2018-11-25T23:28:30.071Z,22.60
2018-11-25T23:30:56.494Z,22.60
2018-11-25T23:33:22.910Z,22.50
2018-11-25T23:35:49.351Z,22.50
2018-11-25T23:38:15.796Z,22.50
2018-11-25T23:40:42.245Z,22.50
2018-11-25T23:43:08.668Z,22.50
2018-11-25T23:45:35.101Z,22.50
2018-11-25T23:48:01.530Z,22.50
2018-11-25T23:50:27.987Z,22.50
2018-11-25T23:52:54.420Z,22.50
2018-11-25T23:55:20.846Z,22.50
2018-11-25T23:57:47.272Z,22.40
